Time;durP1;ratioP1;P1;durP2;ratioP2;P2;SDS_P1;SDS_P2;PMS_P1;PMS_P2;Temp;Humidity;BMP_temperature;BMP_pressure;BME280_temperature;BME280_humidity;BME280_pressure;Samples;Min_cycle;Max_cycle;Signal;HPM_P1;HPM_P2
2022/05/22 00:01:19;;;;;;;;;;;;;;;24.85;52.07;100569.53;4919022;29;19927;-76
2022/05/22 00:04:04;;;;;;;;;;;;;;;24.86;51.75;100560.78;4924239;29;19920;-76
2022/05/22 00:06:48;;;;;;;;;;;;;;;24.80;52.30;100559.66;4922228;29;19923;-76
2022/05/22 00:09:33;;;;;;;;;;;;;;;24.74;52.54;100558.53;4898109;29;19919;-77
2022/05/22 00:12:18;;;;;;;;;;;;;;;24.71;52.61;100553.81;4911218;29;19923;-77
2022/05/22 00:15:03;;;;;;;;;;;;;;;24.71;52.54;100560.19;4903830;29;20312;-77
2022/05/22 00:17:48;;;;;;;;;;;;;;;24.70;52.81;100553.03;4921254;29;19920;-75
2022/05/22 00:20:32;;;;;;;;;;;;;;;24.65;53.11;100549.91;4909945;29;20304;-76
2022/05/22 00:23:16;;;;;;;;;;;;;;;24.58;53.13;100547.22;4927124;29;19919;-76
2022/05/22 00:26:01;;;;;;;;;;;;;;;24.47;53.56;100539.00;4922941;29;19920;-76
2022/05/22 00:28:46;;;;;;;;;;;;;;;24.37;53.77;100539.91;4909191;29;19919;-75
2022/05/22 00:31:30;;;;;;;;;;;;;;;24.28;54.21;100542.38;4918152;29;19941;-75
2022/05/22 00:34:15;;;;;;;;;;;;;;;24.29;54.02;100539.19;4923578;29;19919;-75
2022/05/22 00:37:00;;;;;;;;;;;;;;;24.19;54.43;100533.72;4924192;29;19919;-75
2022/05/22 00:39:44;;;;;;;;;;;;;;;23.99;55.25;100541.81;4924731;29;19931;-77
2022/05/22 00:42:28;;;;;;;;;;;;;;;23.78;55.93;100542.78;4908632;29;19927;-77
2022/05/22 00:45:13;;;;;;;;;;;;;;;23.74;56.29;100538.47;4903080;29;19919;-76
2022/05/22 00:47:58;;;;;;;;;;;;;;;23.75;55.89;100532.50;4909203;29;20308;-76
2022/05/22 00:50:42;;;;;;;;;;;;;;;23.74;55.94;100536.47;4904783;29;20384;-77
2022/05/22 00:53:29;;;;;;;;;;;;;;;23.90;55.18;100532.38;4913071;29;19920;-75
2022/05/22 00:56:16;;;;;;;;;;;;;;;23.84;55.63;100537.59;4904988;29;19919;-76
2022/05/22 00:59:04;;;;;;;;;;;;;;;23.78;55.87;100537.25;4912883;29;19919;-76
2022/05/22 01:01:51;;;;;;;;;;;;;;;23.85;55.39;100536.41;4913147;29;20397;-76
2022/05/22 01:04:36;;;;;;;;;;;;;;;23.78;55.44;100542.00;4897659;29;19920;-76
2022/05/22 01:07:21;;;;;;;;;;;;;;;23.72;55.65;100530.53;4909453;29;19919;-77
2022/05/22 01:10:06;;;;;;;;;;;;;;;23.66;56.17;100525.84;4917589;29;19919;-76
2022/05/22 01:12:50;;;;;;;;;;;;;;;23.65;55.96;100533.38;4919555;29;19920;-77
2022/05/22 01:15:35;;;;;;;;;;;;;;;23.64;56.28;100534.56;4907724;29;20303;-75
2022/05/22 01:18:20;;;;;;;;;;;;;;;23.55;56.20;100533.47;4916096;29;19920;-76
2022/05/22 01:21:09;;;;;;;;;;;;;;;23.54;56.23;100527.13;4911800;29;20373;-76
2022/05/22 01:23:55;;;;;;;;;;;;;;;23.46;56.55;100530.34;4904963;29;19920;-77
2022/05/22 01:26:42;;;;;;;;;;;;;;;23.57;56.17;100519.97;4901044;29;20388;-76
2022/05/22 01:29:41;;;;;;;;;;;;;;;23.63;55.88;100530.22;4925364;29;20384;-75
2022/05/22 01:32:25;;;;;;;;;;;;;;;23.53;55.89;100522.75;4898337;29;19919;-75
2022/05/22 01:35:11;;;;;;;;;;;;;;;23.61;55.97;100523.50;4913603;29;19920;-75
2022/05/22 01:37:58;;;;;;;;;;;;;;;23.65;55.69;100516.72;4917750;29;19927;-75
2022/05/22 01:40:43;;;;;;;;;;;;;;;23.69;55.78;100508.34;4922182;29;20307;-75
2022/05/22 01:43:28;;;;;;;;;;;;;;;23.61;55.93;100504.88;4899814;29;20500;-75
2022/05/22 01:46:15;;;;;;;;;;;;;;;23.60;55.75;100502.50;4910032;29;20311;-76
2022/05/22 01:49:11;;;;;;;;;;;;;;;23.55;56.12;100517.59;4934684;23;19927;-59
2022/05/22 01:51:56;;;;;;;;;;;;;;;23.49;56.33;100513.69;4940893;29;20329;-59
2022/05/22 01:54:40;;;;;;;;;;;;;;;23.50;56.31;100512.47;4941495;29;19919;-60
2022/05/22 01:57:25;;;;;;;;;;;;;;;23.42;56.49;100513.69;4938808;29;19919;-60
2022/05/22 02:00:12;;;;;;;;;;;;;;;23.45;56.51;100512.91;4935006;29;19918;-60
2022/05/22 02:03:00;;;;;;;;;;;;;;;23.41;56.37;100503.81;4935043;29;20290;-59
2022/05/22 02:05:49;;;;;;;;;;;;;;;23.44;56.63;100501.00;4941277;29;19928;-60
2022/05/22 02:08:34;;;;;;;;;;;;;;;23.46;56.45;100508.16;4935187;29;19919;-60
2022/05/22 02:11:19;;;;;;;;;;;;;;;23.39;56.70;100495.88;4934339;29;20301;-57
2022/05/22 02:14:07;;;;;;;;;;;;;;;23.38;56.93;100515.69;4934871;29;19919;-59
2022/05/22 02:16:52;;;;;;;;;;;;;;;23.49;56.59;100504.56;4934631;29;19918;-59
2022/05/22 02:19:36;;;;;;;;;;;;;;;23.51;56.58;100505.75;4941189;29;20290;-59
2022/05/22 02:22:21;;;;;;;;;;;;;;;23.51;56.27;100511.28;4934518;29;19923;-56
2022/05/22 02:25:06;;;;;;;;;;;;;;;23.42;56.54;100510.91;4941017;29;19926;-60
2022/05/22 02:27:52;;;;;;;;;;;;;;;23.48;56.48;100506.53;4937443;29;19918;-59
2022/05/22 02:30:37;;;;;;;;;;;;;;;23.46;56.46;100502.59;4934596;29;19919;-59
2022/05/22 02:33:22;;;;;;;;;;;;;;;23.39;56.81;100508.97;4940781;29;19919;-59
2022/05/22 02:36:20;;;;;;;;;;;;;;;23.37;56.66;100500.25;4934542;29;19919;-59
2022/05/22 02:39:08;;;;;;;;;;;;;;;23.35;56.82;100508.19;4940780;29;20383;-59
2022/05/22 02:41:53;;;;;;;;;;;;;;;23.33;56.53;100502.25;4934405;29;20383;-60
2022/05/22 02:44:38;;;;;;;;;;;;;;;23.24;57.17;100505.50;4940756;29;19919;-59
2022/05/22 02:47:25;;;;;;;;;;;;;;;23.18;57.45;100493.22;4934355;29;20379;-58
2022/05/22 02:50:11;;;;;;;;;;;;;;;23.24;57.18;100496.38;4934607;29;19918;-59
2022/05/22 02:52:56;;;;;;;;;;;;;;;23.17;57.11;100491.66;4934271;29;19923;-59
2022/05/22 02:55:46;;;;;;;;;;;;;;;23.15;57.43;100491.28;4934216;29;19919;-57
2022/05/22 02:58:31;;;;;;;;;;;;;;;23.13;57.69;100498.41;4934032;29;19919;-59
2022/05/22 03:01:15;;;;;;;;;;;;;;;23.06;57.77;100490.16;4940517;29;19923;-59
2022/05/22 03:04:00;;;;;;;;;;;;;;;23.00;57.68;100487.81;4934001;29;20287;-58
2022/05/22 03:06:45;;;;;;;;;;;;;;;23.02;57.58;100488.19;4939759;29;19919;-59
2022/05/22 03:09:30;;;;;;;;;;;;;;;23.00;58.00;100493.34;4934053;29;19919;-59
2022/05/22 03:12:17;;;;;;;;;;;;;;;22.93;57.95;100496.16;4934266;29;19918;-59
2022/05/22 03:15:06;;;;;;;;;;;;;;;22.93;58.20;100484.28;4934056;29;19919;-59
2022/05/22 03:17:56;;;;;;;;;;;;;;;22.97;57.82;100483.06;4934078;29;20349;-58
2022/05/22 03:20:41;;;;;;;;;;;;;;;22.92;58.02;100479.91;4933957;29;19919;-59
2022/05/22 03:23:26;;;;;;;;;;;;;;;22.89;58.41;100481.53;4942699;29;19922;-60
2022/05/22 03:26:10;;;;;;;;;;;;;;;22.93;58.18;100485.06;4937749;29;20294;-58
2022/05/22 03:28:55;;;;;;;;;;;;;;;22.91;58.23;100484.66;4937805;29;19918;-59
2022/05/22 03:31:40;;;;;;;;;;;;;;;22.87;58.51;100492.22;4937674;29;19919;-58
2022/05/22 03:34:25;;;;;;;;;;;;;;;22.86;58.38;100493.41;4937806;29;19918;-59
2022/05/22 03:37:14;;;;;;;;;;;;;;;22.84;58.35;100489.47;4937512;29;19919;-59
2022/05/22 03:39:59;;;;;;;;;;;;;;;22.71;58.96;100493.88;4937560;29;19919;-59
2022/05/22 03:42:44;;;;;;;;;;;;;;;22.78;58.66;100491.09;4937553;29;19923;-59
2022/05/22 03:45:28;;;;;;;;;;;;;;;22.77;58.84;100495.84;4956524;28;19918;-59
2022/05/22 03:48:13;;;;;;;;;;;;;;;22.70;59.03;100489.53;4938860;29;19918;-59
2022/05/22 03:51:00;;;;;;;;;;;;;;;22.75;58.76;100486.34;4937732;29;19919;-59
2022/05/22 03:53:45;;;;;;;;;;;;;;;22.72;58.87;100482.41;4937215;29;19918;-57
2022/05/22 03:56:42;;;;;;;;;;;;;;;22.71;59.06;100494.66;4937293;29;20320;-60
2022/05/22 03:59:37;;;;;;;;;;;;;;;22.67;59.15;100502.19;4943667;29;19930;-60
2022/05/22 04:02:22;;;;;;;;;;;;;;;22.67;59.39;100502.19;4943597;29;19922;-59
2022/05/22 04:05:08;;;;;;;;;;;;;;;22.69;58.99;100497.03;4937247;29;19922;-59
2022/05/22 04:07:53;;;;;;;;;;;;;;;22.63;59.27;100501.41;4936922;29;20382;-59
2022/05/22 04:10:57;;;;;;;;;;;;;;;22.58;59.48;100507.38;4937129;29;19918;-59
2022/05/22 04:13:42;;;;;;;;;;;;;;;22.55;59.47;100505.41;4943199;29;19919;-59
2022/05/22 04:16:26;;;;;;;;;;;;;;;22.60;59.76;100507.78;4943405;29;19919;-59
2022/05/22 04:19:12;;;;;;;;;;;;;;;22.63;59.41;100512.50;4936792;29;19919;-59
2022/05/22 04:21:56;;;;;;;;;;;;;;;22.59;59.83;100514.50;4943210;29;20118;-60
2022/05/22 04:27:51;;;;;;;;;;;;;;;22.59;59.94;100511.72;4937007;29;20390;-60
2022/05/22 04:30:36;;;;;;;;;;;;;;;22.63;59.70;100515.28;4943004;29;19918;-59
2022/05/22 04:33:26;;;;;;;;;;;;;;;22.59;60.22;100518.06;4936548;29;19919;-59
2022/05/22 04:36:10;;;;;;;;;;;;;;;22.66;59.87;100517.22;4942931;29;19919;-59
2022/05/22 04:38:55;;;;;;;;;;;;;;;22.55;60.51;100524.81;4936813;29;20291;-60
2022/05/22 04:41:40;;;;;;;;;;;;;;;22.58;60.93;100524.00;4936212;29;19923;-59
2022/05/22 04:44:26;;;;;;;;;;;;;;;22.60;60.81;100524.41;4942883;29;19918;-56
2022/05/22 04:47:25;;;;;;;;;;;;;;;22.62;61.06;100530.31;4936384;29;19919;-59
2022/05/22 04:50:29;;;;;;;;;;;;;;;22.64;60.75;100519.63;4936733;29;20359;-59
2022/05/22 04:53:33;;;;;;;;;;;;;;;22.73;60.71;100522.00;4936246;29;19919;-59
2022/05/22 04:56:35;;;;;;;;;;;;;;;22.78;60.31;100533.47;4942083;29;19919;-60
2022/05/22 04:59:29;;;;;;;;;;;;;;;22.73;60.62;100525.56;4942667;29;19918;-60
2022/05/22 05:02:14;;;;;;;;;;;;;;;22.76;60.54;100533.06;4935992;29;19922;-59
2022/05/22 05:05:13;;;;;;;;;;;;;;;22.82;60.34;100531.47;4956791;28;19974;-60
2022/05/22 05:07:58;;;;;;;;;;;;;;;22.88;60.35;100540.94;4957275;28;19918;-58
2022/05/22 05:10:59;;;;;;;;;;;;;;;22.97;60.31;100535.75;4955212;29;19919;-60
2022/05/22 05:13:51;;;;;;;;;;;;;;;23.05;59.84;100541.28;4955015;29;19919;-59
2022/05/22 05:16:35;;;;;;;;;;;;;;;23.10;60.01;100547.19;4961019;28;19918;-60
2022/05/22 05:19:26;;;;;;;;;;;;;;;23.08;60.13;100537.69;4955221;29;19914;-59
2022/05/22 05:22:11;;;;;;;;;;;;;;;23.13;59.90;100546.38;4954849;29;20090;-60
2022/05/22 05:24:57;;;;;;;;;;;;;;;23.22;60.00;100548.69;4954786;29;19922;-60
2022/05/22 05:27:48;;;;;;;;;;;;;;;23.28;59.88;100549.84;4957599;28;19923;-60
2022/05/22 05:30:37;;;;;;;;;;;;;;;23.30;60.19;100550.25;4954720;29;19922;-59
2022/05/22 05:33:23;;;;;;;;;;;;;;;23.39;59.73;100550.59;4954265;29;20297;-59
2022/05/22 05:36:28;;;;;;;;;;;;;;;23.46;59.62;100544.25;4961450;28;19923;-59
2022/05/22 05:39:32;;;;;;;;;;;;;;;23.52;59.15;100540.59;4955024;29;20289;-60
2022/05/22 05:42:40;;;;;;;;;;;;;;;23.59;59.09;100554.44;4961107;28;19923;-60
2022/05/22 05:45:25;;;;;;;;;;;;;;;23.67;58.93;100552.44;4952981;28;19919;-60
2022/05/22 05:48:14;;;;;;;;;;;;;;;23.75;58.73;100556.72;4954046;28;19919;-60
2022/05/22 05:51:05;;;;;;;;;;;;;;;23.80;58.70;100561.84;4959422;28;19919;-58
2022/05/22 05:53:54;;;;;;;;;;;;;;;23.85;58.85;100561.41;4960156;28;20289;-59
2022/05/22 05:57:03;;;;;;;;;;;;;;;23.78;60.98;100553.09;4958804;28;19926;-59
2022/05/22 05:59:56;;;;;;;;;;;;;;;23.78;60.61;100559.44;4960614;28;19918;-58
2022/05/22 06:02:40;;;;;;;;;;;;;;;23.78;60.40;100553.91;4954178;29;19922;-60
2022/05/22 06:05:25;;;;;;;;;;;;;;;23.85;59.88;100556.63;4954165;29;19918;-60
2022/05/22 06:08:10;;;;;;;;;;;;;;;23.88;59.79;100552.22;4955796;28;19919;-60
2022/05/22 06:10:55;;;;;;;;;;;;;;;23.90;59.90;100549.84;4960580;28;19918;-59
2022/05/22 06:14:08;;;;;;;;;;;;;;;23.97;59.41;100543.44;4954003;29;19918;-60
2022/05/22 06:16:52;;;;;;;;;;;;;;;24.02;59.38;100538.25;4953766;28;20386;-59
2022/05/22 06:19:54;;;;;;;;;;;;;;;24.11;58.97;100533.00;4960290;28;19918;-59
2022/05/22 06:22:44;;;;;;;;;;;;;;;24.18;58.81;100527.38;4953939;29;20378;-60
2022/05/22 06:25:48;;;;;;;;;;;;;;;24.25;58.69;100532.09;4954108;28;20386;-59
2022/05/22 06:28:52;;;;;;;;;;;;;;;24.30;58.97;100520.50;4952588;28;19918;-59
2022/05/22 06:31:55;;;;;;;;;;;;;;;24.38;59.02;100519.22;4953885;29;19918;-59
2022/05/22 06:35:00;;;;;;;;;;;;;;;24.50;58.65;100518.69;4953616;29;20293;-59
2022/05/22 06:38:06;;;;;;;;;;;;;;;24.51;58.22;100523.06;4955749;28;19920;-60
2022/05/22 06:41:24;;;;;;;;;;;;;;;24.57;57.37;100528.97;4960213;28;19919;-59
2022/05/22 06:44:39;;;;;;;;;;;;;;;24.64;57.51;100524.09;4960016;28;19922;-59
2022/05/22 06:47:58;;;;;;;;;;;;;;;24.72;57.10;100538.72;4955805;28;19922;-58
2022/05/22 06:51:02;;;;;;;;;;;;;;;24.80;56.49;100528.28;4953566;29;19914;-60
2022/05/22 06:53:47;;;;;;;;;;;;;;;24.84;55.40;100527.03;4959508;28;19926;-59
2022/05/22 06:56:50;;;;;;;;;;;;;;;24.88;55.67;100516.69;4952469;28;19926;-58
2022/05/22 06:59:53;;;;;;;;;;;;;;;24.95;55.08;100522.16;4972651;28;19918;-60
2022/05/22 07:02:57;;;;;;;;;;;;;;;25.01;53.76;100525.25;4953689;29;19922;-60
2022/05/22 07:06:04;;;;;;;;;;;;;;;25.12;53.81;100515.56;4960213;29;19918;-60
2022/05/22 07:09:06;;;;;;;;;;;;;;;25.19;53.42;100517.47;4960052;29;19922;-60
2022/05/22 07:12:12;;;;;;;;;;;;;;;25.29;54.06;100521.28;4959861;29;19919;-60
2022/05/22 07:15:17;;;;;;;;;;;;;;;25.28;54.36;100522.50;4959977;28;19918;-58
2022/05/22 07:18:02;;;;;;;;;;;;;;;25.36;54.21;100513.63;4955580;28;19919;-57
2022/05/22 07:21:05;;;;;;;;;;;;;;;25.45;52.19;100513.88;4953886;29;19919;-59
2022/05/22 07:24:07;;;;;;;;;;;;;;;25.55;51.04;100512.94;4953527;29;19922;-58
2022/05/22 07:27:06;;;;;;;;;;;;;;;25.63;51.07;100513.63;4957973;28;19918;-60
2022/05/22 07:30:09;;;;;;;;;;;;;;;25.70;51.67;100524.63;4959872;29;19918;-60
2022/05/22 07:33:13;;;;;;;;;;;;;;;25.71;52.07;100517.06;4970227;28;19918;-59
2022/05/22 07:36:17;;;;;;;;;;;;;;;25.75;52.17;100510.22;4934258;29;19919;-58
2022/05/22 07:39:20;;;;;;;;;;;;;;;25.79;52.03;100516.56;4939286;29;19918;-58
2022/05/22 07:42:24;;;;;;;;;;;;;;;25.86;51.98;100510.06;4953858;29;19922;-60
2022/05/22 07:45:27;;;;;;;;;;;;;;;25.94;50.95;100500.38;4953905;29;19919;-58
2022/05/22 07:48:25;;;;;;;;;;;;;;;26.06;50.51;100508.09;4968062;23;19927;-60
2022/05/22 07:51:20;;;;;;;;;;;;;;;26.16;50.27;100509.16;4952813;29;19926;-61
2022/05/22 07:54:27;;;;;;;;;;;;;;;26.24;50.12;100514.19;4959664;28;20131;-62
2022/05/22 07:57:25;;;;;;;;;;;;;;;26.27;49.94;100510.53;4960789;28;19918;-61
2022/05/22 08:00:21;;;;;;;;;;;;;;;26.28;50.15;100514.09;4978894;28;19918;-62
2022/05/22 08:03:14;;;;;;;;;;;;;;;26.33;49.78;100500.47;4962005;28;19926;-61
2022/05/22 08:06:03;;;;;;;;;;;;;;;26.36;50.54;100498.84;4959161;29;19923;-60
2022/05/22 08:08:52;;;;;;;;;;;;;;;26.37;50.03;100503.16;4954140;28;20309;-60
2022/05/22 08:11:45;;;;;;;;;;;;;;;26.51;49.88;100493.75;4956229;29;19918;-62
2022/05/22 08:14:32;;;;;;;;;;;;;;;26.57;49.00;100492.00;4956311;29;19919;-62
2022/05/22 08:17:21;;;;;;;;;;;;;;;26.61;48.83;100495.53;4960038;28;19918;-62
2022/05/22 08:20:07;;;;;;;;;;;;;;;26.69;47.97;100499.75;4956546;29;20279;-61
2022/05/22 08:23:09;;;;;;;;;;;;;;;26.74;47.59;100502.81;4967973;28;19922;-62
2022/05/22 08:26:01;;;;;;;;;;;;;;;26.85;47.52;100499.81;4981853;28;19918;-61
2022/05/22 08:28:49;;;;;;;;;;;;;;;27.00;47.54;100503.88;4975328;28;19918;-60
2022/05/22 08:31:35;;;;;;;;;;;;;;;27.09;47.22;100494.91;4974983;28;20373;-61
2022/05/22 08:34:20;;;;;;;;;;;;;;;27.11;47.69;100495.28;4975162;28;19918;-58
2022/05/22 08:37:05;;;;;;;;;;;;;;;27.23;46.54;100491.78;4974892;28;19918;-60
2022/05/22 08:39:50;;;;;;;;;;;;;;;27.31;47.04;100492.41;4981605;28;19918;-61
2022/05/22 08:42:37;;;;;;;;;;;;;;;27.44;46.73;100484.91;4981303;28;19922;-61
2022/05/22 08:45:27;;;;;;;;;;;;;;;27.41;44.75;100483.78;4975010;28;19918;-60
2022/05/22 08:48:11;;;;;;;;;;;;;;;27.42;44.82;100484.59;4974453;28;19926;-60
2022/05/22 08:50:57;;;;;;;;;;;;;;;27.47;44.92;100490.44;4975038;28;19918;-61
2022/05/22 08:53:50;;;;;;;;;;;;;;;27.53;41.88;100480.31;4956453;28;19919;-60
2022/05/22 08:59:41;;;;;;;;;;;;;;;27.82;43.34;100468.44;4969392;28;19918;-60
2022/05/22 09:02:29;;;;;;;;;;;;;;;27.88;42.61;100464.69;4971370;28;20309;-60
2022/05/22 09:05:16;;;;;;;;;;;;;;;27.97;42.14;100467.63;4960196;28;19923;-61
2022/05/22 09:08:06;;;;;;;;;;;;;;;28.03;41.97;100463.06;4955084;29;19918;-60
2022/05/22 09:10:51;;;;;;;;;;;;;;;28.01;40.53;100471.09;4955162;29;20279;-61
2022/05/22 09:13:54;;;;;;;;;;;;;;;28.04;40.04;100470.22;4955408;29;19918;-60
2022/05/22 09:16:44;;;;;;;;;;;;;;;28.05;40.51;100463.41;4955149;29;19919;-61
2022/05/22 09:19:34;;;;;;;;;;;;;;;28.16;40.72;100462.34;4961290;28;20298;-60
2022/05/22 09:22:19;;;;;;;;;;;;;;;28.24;39.31;100460.94;4954881;29;19927;-61
2022/05/22 09:25:13;;;;;;;;;;;;;;;28.29;39.13;100452.00;4954785;29;19922;-60
2022/05/22 09:28:09;;;;;;;;;;;;;;;28.33;38.92;100456.28;4967330;28;19918;-61
2022/05/22 09:31:03;;;;;;;;;;;;;;;28.37;38.86;100442.97;4980438;28;19922;-60
2022/05/22 09:34:00;;;;;;;;;;;;;;;28.36;39.21;100441.38;4980576;28;19918;-60
2022/05/22 09:36:44;;;;;;;;;;;;;;;28.38;40.89;100443.75;4979518;28;19918;-60
2022/05/22 09:39:38;;;;;;;;;;;;;;;28.39;41.01;100448.88;4961581;28;20317;-61
2022/05/22 09:42:41;;;;;;;;;;;;;;;28.41;41.83;100449.22;4953419;29;19923;-61
2022/05/22 09:45:45;;;;;;;;;;;;;;;28.39;42.12;100446.09;4954471;29;20289;-61
2022/05/22 09:48:55;;;;;;;;;;;;;;;28.44;42.49;100451.13;4955258;28;19918;-61
2022/05/22 09:51:58;;;;;;;;;;;;;;;28.60;41.81;100446.72;4954765;29;20118;-61
2022/05/22 09:54:55;;;;;;;;;;;;;;;28.70;41.24;100446.38;4957539;28;19918;-60
2022/05/22 09:57:40;;;;;;;;;;;;;;;28.75;41.72;100445.09;4956830;28;19918;-62
2022/05/22 10:00:30;;;;;;;;;;;;;;;28.75;41.89;100440.25;4962495;28;19918;-60
2022/05/22 10:03:20;;;;;;;;;;;;;;;28.81;41.61;100438.47;4954494;29;20381;-62
2022/05/22 10:06:27;;;;;;;;;;;;;;;28.94;40.58;100440.50;4954810;29;19918;-60
2022/05/22 10:09:18;;;;;;;;;;;;;;;29.07;40.67;100430.88;4954480;29;19981;-60
2022/05/22 10:12:21;;;;;;;;;;;;;;;29.13;40.36;100437.47;4954595;29;19918;-61
2022/05/22 10:15:22;;;;;;;;;;;;;;;29.14;40.01;100441.06;4954405;29;19918;-61
2022/05/22 10:18:16;;;;;;;;;;;;;;;29.25;40.17;100442.28;4956188;28;19918;-60
2022/05/22 10:21:08;;;;;;;;;;;;;;;29.37;39.45;100435.13;4959811;28;19918;-61
2022/05/22 10:24:02;;;;;;;;;;;;;;;29.37;40.25;100432.31;4959400;28;19930;-61
2022/05/22 10:26:59;;;;;;;;;;;;;;;29.46;39.95;100428.84;4954239;29;19922;-60
2022/05/22 10:29:49;;;;;;;;;;;;;;;29.58;39.64;100425.22;4954053;29;19918;-60
2022/05/22 10:32:38;;;;;;;;;;;;;;;29.56;39.00;100419.28;4954185;28;19922;-58
2022/05/22 10:35:25;;;;;;;;;;;;;;;29.57;39.39;100424.44;4961042;28;19918;-61
2022/05/22 10:38:13;;;;;;;;;;;;;;;29.64;38.70;100429.78;4954339;29;19918;-60
2022/05/22 10:44:20;;;;;;;;;;;;;;;29.55;40.44;100418.50;4959309;28;20305;-61
2022/05/22 10:47:05;;;;;;;;;;;;;;;29.61;39.85;100421.53;4958795;28;19919;-59
2022/05/22 10:49:50;;;;;;;;;;;;;;;29.63;39.91;100410.63;4966746;28;19918;-60
2022/05/22 10:52:37;;;;;;;;;;;;;;;29.72;40.38;100403.06;4972867;28;19918;-60
2022/05/22 10:55:31;;;;;;;;;;;;;;;29.72;40.05;100403.06;4972763;28;19918;-60
2022/05/22 10:58:23;;;;;;;;;;;;;;;29.82;39.99;100398.31;4972671;28;19918;-60
2022/05/22 11:01:15;;;;;;;;;;;;;;;29.86;39.27;100396.19;4979064;28;19918;-60
2022/05/22 11:04:05;;;;;;;;;;;;;;;29.80;39.26;100400.81;4972759;28;19922;-61
2022/05/22 11:06:53;;;;;;;;;;;;;;;29.80;38.94;100394.44;4972510;28;19918;-60
2022/05/22 11:09:48;;;;;;;;;;;;;;;29.79;39.11;100392.84;4960410;28;19926;-58
2022/05/22 11:12:32;;;;;;;;;;;;;;;29.77;39.68;100391.28;4953307;29;20378;-60
2022/05/22 11:15:27;;;;;;;;;;;;;;;29.85;39.06;100391.03;4953478;29;19919;-60
2022/05/22 11:18:20;;;;;;;;;;;;;;;29.97;39.58;100387.44;4934001;29;19919;-60
2022/05/22 11:21:11;;;;;;;;;;;;;;;29.89;38.92;100386.91;4933883;29;19918;-60
2022/05/22 11:23:55;;;;;;;;;;;;;;;29.83;39.07;100377.47;4940461;29;19923;-60
2022/05/22 11:26:40;;;;;;;;;;;;;;;29.87;38.83;100380.91;4933895;29;19919;-58
2022/05/22 11:29:33;;;;;;;;;;;;;;;29.98;38.68;100372.94;4933986;29;19915;-60
2022/05/22 11:32:39;;;;;;;;;;;;;;;30.00;38.86;100369.69;4934046;29;19918;-60
2022/05/22 11:35:28;;;;;;;;;;;;;;;29.97;38.56;100370.63;4940602;29;19923;-62
2022/05/22 11:38:12;;;;;;;;;;;;;;;29.97;38.45;100368.56;4940128;29;19918;-60
2022/05/22 11:41:00;;;;;;;;;;;;;;;29.95;38.39;100359.84;4959566;29;19919;-60
2022/05/22 11:44:02;;;;;;;;;;;;;;;29.90;39.22;100354.03;4960459;28;19922;-58
2022/05/22 11:46:57;;;;;;;;;;;;;;;29.98;38.60;100347.69;4956722;29;19922;-60
2022/05/22 11:50:06;;;;;;;;;;;;;;;30.04;38.04;100359.13;4958571;28;19918;-60
2022/05/22 11:52:58;;;;;;;;;;;;;;;30.08;37.83;100349.31;4938065;29;19919;-61
2022/05/22 11:55:58;;;;;;;;;;;;;;;30.07;38.23;100353.34;4940477;29;19923;-60
2022/05/22 11:58:56;;;;;;;;;;;;;;;30.16;38.34;100347.03;4956916;29;19922;-61
2022/05/22 12:01:43;;;;;;;;;;;;;;;30.32;38.12;100348.84;4974965;28;19918;-60
2022/05/22 12:04:40;;;;;;;;;;;;;;;30.35;37.69;100347.91;4982538;28;20385;-61
2022/05/22 12:07:28;;;;;;;;;;;;;;;30.42;37.22;100358.88;4975476;28;19918;-60
2022/05/22 12:10:22;;;;;;;;;;;;;;;30.49;37.26;100355.81;4981941;28;19922;-58
2022/05/22 12:13:25;;;;;;;;;;;;;;;30.51;37.20;100353.34;4982158;28;19918;-59
2022/05/22 12:16:23;;;;;;;;;;;;;;;30.46;37.12;100351.09;4975864;28;20282;-60
2022/05/22 12:19:10;;;;;;;;;;;;;;;30.57;37.45;100346.66;4975921;28;19918;-61
2022/05/22 12:21:58;;;;;;;;;;;;;;;30.58;37.72;100345.41;4963802;28;19918;-60
2022/05/22 12:24:46;;;;;;;;;;;;;;;30.66;37.38;100333.91;4956375;29;19923;-60
2022/05/22 12:27:35;;;;;;;;;;;;;;;30.68;37.34;100320.19;4955927;29;20314;-60
2022/05/22 12:30:39;;;;;;;;;;;;;;;30.68;37.49;100320.19;4956648;29;19918;-60
2022/05/22 12:33:26;;;;;;;;;;;;;;;30.64;37.83;100311.91;4961566;28;19923;-60
2022/05/22 12:36:11;;;;;;;;;;;;;;;30.60;37.71;100311.25;4955770;29;19919;-61
2022/05/22 12:39:00;;;;;;;;;;;;;;;30.63;38.08;100306.78;4962402;28;19919;-60
2022/05/22 12:41:50;;;;;;;;;;;;;;;30.59;38.12;100302.06;4956063;29;19926;-60
2022/05/22 12:44:35;;;;;;;;;;;;;;;30.48;37.84;100293.28;4970652;28;20398;-61
2022/05/22 12:47:20;;;;;;;;;;;;;;;30.48;37.77;100282.06;4975042;28;19918;-60
2022/05/22 12:50:05;;;;;;;;;;;;;;;30.52;37.83;100265.88;4974861;28;20285;-60
2022/05/22 12:52:52;;;;;;;;;;;;;;;30.47;37.78;100263.69;4975071;28;19918;-61
2022/05/22 12:55:38;;;;;;;;;;;;;;;30.41;37.66;100257.06;4957206;28;19918;-61
2022/05/22 12:58:34;;;;;;;;;;;;;;;30.44;38.39;100241.31;4955300;29;19918;-61
2022/05/22 13:01:22;;;;;;;;;;;;;;;30.45;38.45;100226.84;4955375;29;20314;-60
2022/05/22 13:04:07;;;;;;;;;;;;;;;30.37;38.52;100219.19;4961526;28;19922;-61
2022/05/22 13:07:00;;;;;;;;;;;;;;;30.33;38.59;100219.28;4955239;29;20298;-61
2022/05/22 13:09:51;;;;;;;;;;;;;;;30.28;38.78;100211.50;4955204;29;20286;-60
2022/05/22 13:12:36;;;;;;;;;;;;;;;30.38;39.58;100212.28;4955060;29;19918;-61
2022/05/22 13:15:25;;;;;;;;;;;;;;;30.37;39.16;100214.34;4942617;29;19982;-61
2022/05/22 13:18:12;;;;;;;;;;;;;;;30.34;38.78;100223.66;4964313;28;20378;-60
2022/05/22 13:20:59;;;;;;;;;;;;;;;30.43;38.47;100234.91;4976136;28;19918;-58
2022/05/22 13:23:44;;;;;;;;;;;;;;;30.48;38.57;100248.38;4980658;28;19922;-60
2022/05/22 13:26:30;;;;;;;;;;;;;;;30.44;38.17;100253.31;4974033;28;19918;-59
2022/05/22 13:29:19;;;;;;;;;;;;;;;30.41;38.40;100259.88;4974359;28;19918;-60
2022/05/22 13:32:11;;;;;;;;;;;;;;;30.39;38.61;100255.94;4974135;28;19943;-61
2022/05/22 13:35:00;;;;;;;;;;;;;;;30.40;38.84;100261.13;4973946;28;19922;-60
2022/05/22 13:37:54;;;;;;;;;;;;;;;30.35;38.81;100256.09;4973898;28;19918;-60
2022/05/22 13:40:52;;;;;;;;;;;;;;;30.34;38.74;100254.53;4973822;28;19918;-60
2022/05/22 13:43:55;;;;;;;;;;;;;;;30.37;38.34;100250.81;4972127;28;19922;-60
2022/05/22 13:46:59;;;;;;;;;;;;;;;30.39;38.61;100253.94;4972894;28;19918;-59
2022/05/22 13:49:50;;;;;;;;;;;;;;;30.39;38.74;100245.50;4971824;23;19926;-59
2022/05/22 13:52:45;;;;;;;;;;;;;;;30.39;38.83;100241.94;4944681;28;19922;-59
2022/05/22 13:55:30;;;;;;;;;;;;;;;30.39;38.45;100237.09;4958710;28;19919;-59
2022/05/22 13:58:34;;;;;;;;;;;;;;;30.37;38.90;100248.03;4935734;29;19923;-59
2022/05/22 14:01:19;;;;;;;;;;;;;;;30.30;39.26;100244.69;4939932;28;19918;-58
2022/05/22 14:04:06;;;;;;;;;;;;;;;30.28;39.19;100228.31;4934922;29;19923;-62
2022/05/22 14:06:51;;;;;;;;;;;;;;;30.29;38.93;100241.13;4934003;29;20123;-60
2022/05/22 14:09:38;;;;;;;;;;;;;;;30.32;39.01;100236.63;4915762;29;19919;-60
2022/05/22 14:12:28;;;;;;;;;;;;;;;30.32;39.15;100234.59;4918679;29;19919;-60
2022/05/22 14:15:17;;;;;;;;;;;;;;;30.37;39.09;100236.00;4930003;29;19919;-60
2022/05/22 14:18:15;;;;;;;;;;;;;;;30.40;38.72;100223.84;4915296;29;19920;-60
2022/05/22 14:21:07;;;;;;;;;;;;;;;30.43;38.34;100229.31;4928007;29;19919;-60
2022/05/22 14:27:04;;;;;;;;;;;;;;;30.47;38.71;100223.59;4934318;29;19919;-60
2022/05/22 14:29:50;;;;;;;;;;;;;;;30.49;38.62;100219.06;4935266;29;20382;-63
2022/05/22 14:32:36;;;;;;;;;;;;;;;30.53;38.92;100210.50;4934472;29;19919;-60
2022/05/22 14:35:28;;;;;;;;;;;;;;;30.46;38.54;100207.97;4933331;29;19919;-60
2022/05/22 14:38:15;;;;;;;;;;;;;;;30.51;38.62;100207.38;4932794;29;20391;-61
2022/05/22 14:41:10;;;;;;;;;;;;;;;30.44;38.43;100210.44;4923371;29;19919;-61
2022/05/22 14:43:55;;;;;;;;;;;;;;;30.42;38.61;100201.72;4926870;29;19923;-60
2022/05/22 14:46:46;;;;;;;;;;;;;;;30.41;38.67;100198.13;4933915;29;19919;-61
2022/05/22 14:49:33;;;;;;;;;;;;;;;30.40;38.66;100193.75;4935496;29;19918;-60